Timeline UpdatesTrip UpdatesNews PostsPvt PostsTravel TipsAdmin PostsConv PostsFollowed PostsChat RequestsBlog PostsPNR Posts

Disclaimer
Search
 
 
Fri Apr 25, 2014 00:13:32 ISTHomeTrainsΣChainsAtlasPNRForumGalleryNewsFAQTripsMembersLoginFeedback
No Recent News for this Train
Other Trains in the News **new
Latest...
From 11.09.2013 to 9.11.2013........19024 Firozpur Janata Express will be terminated at Dadar.
Thu Sep 05, 2013 (07:07PM)
⇐ Return Journey: Train# 19023

19024/Firozpur - Mumbai Central Janta Express

Dec 24 2013 (8:25PM)
Change Departure Station:
Change Arrival Station:
Post a Train Travel TipPost a Train Travel Tip **new
Post a Comment/Question/Picture/VideoPost a Comment/Question/Picture/Video
Inaugural Run
Mon Oct 01, 1956
Pantry/Catering
✕ NO Pantry Car
✓ Catering Avbl
Catering from local vendors
RSA - Rake Sharing
Dedicated Rake.No RSA
Rake/Coach Composition
LOCO<SLR,GS,GS(MST),GS,S-1, S-2, S-3, S-4, S-5, S-6, S-7, S-8,GS,SLR,HCPV=14+1
Loco
TKD WDP-4/4B between FZR-NDLS, GZB WAP5 between NDLS-BCT
News    PNR    Forum    Time-Table    Availability    Fare Chart    Map    Arr/Dep History    Trips    Gallery    ΣChains    X/O    Timeline    
Travel Time: 12h 36m    34 halts    Distance: 567 km    Avg Speed: 45 km/hr
Type: Mail/Express
Zone: WR/Western
Departs @ 07:10 (Avg 27m late)
Platform# ???
SMTWTFS
Meghnagar/MGN 
Arrives @ 19:46 (Avg 9m late)
Platform# 5
SMTWTFS
Mumbai Dadar Western/DDR 

34 halts. 105 intermediate Stations between Meghnagar and Mumbai Dadar Western

Show ALL intermediate Stations  Show Old Time-Table

#CodeStation NameX/OArrivesAvgDepartsAvgHaltPFDay#KmSpeedElevZoneAddress
1FZRFirozpur Cantt. Junction (5)  -05:10+1711-1200.181200mNRFirozpur Cantt 152001, Punjab
2FDKFaridkot (3)  05:34+2705:36+282m11-1167.855202mNRFaridkot, Punjab
3KKPKot Kapura Junction (3)  05:50+2905:52+292m11-1155.1650mNRKotkapura, Punjab
4GJUTGangsar Jaitu (3)  06:07+2806:09+282m11-1138.861207mNRJaitu, Punjab
5GNAGoneana Bhai Jagta (3)X  06:23+2806:25+302m11-1124.625206mNRGoniana, Punjab
6BTIBathinda Junction (6)  06:55+1507:05+1810m21-1112.382208mNRBathinda, Punjab
7MAURMaur  07:31+2807:33+282m--1-1076.8101220mNRMaur Mandi, Punjab
8KTKLKotli Kalan  07:39-07:41-2m--1-1066.740219mNRState Highway 12A, Punjab
9MSZMansa  07:54+2607:56+272m--1-1058.174222mNRMansa, Punjab
10BLZBudhlada  08:09+2908:11+292m--1-1042.071223mNRBudhlada, Punjab
11BRZBareta  08:24+2908:26+292m--1-1026.650223mNRBareta, Punjab
12JHLJakhal Junction  08:43+2608:45+282m--1-1012.467225mNRJakhal, Haryana
13TUNTohana (2)  08:56+3108:58+312m--1-1000.176232mNRTohana, Haryana
14NRWNarwana Junction (4)  09:18+3109:20+322m--1-974.770235mNRWay to Narwana, Haryana
15UCAUchanaX  09:33+3209:35+322m--1-959.545225mNRDistrict Jind, Haryana
16JINDJind Junction (3)  10:00+2610:05+265m--1-940.870222mNR126102., Haryana
17JNAJulana  10:27+2110:29+202m--1-915.152226mNRJulana, Haryana
18ROKRohtak Junction (3)  11:05+2511:08+253m--1-883.763220mNRRohtak, Haryana
19ISMIsmaila Haryana  11:26-11:28-2m--1-864.953221mNRNational Highway 10, Haryana
20SPZSampla  11:32+2711:34+282m--1-861.372222mNRSampla, Haryana
21BGZBahadurgarh  11:49+3011:51+302m--1-843.462220mNRBahadurgarh, Haryana
22NNONangloi  12:03+3312:05+342m--1-830.948219mNRJJ Colony No 1, Delhi NCT
23MGLPMangolpuriX  12:09+012:11+02m--1-827.726217mNROutter Ring Rd, Delhi NCT
24SSBShakur Basti  12:21+3112:23+332m--1-823.532216mNRPitampura, Delhi NCT
25DKZDelhi KishanGanj (2)  12:36+2612:38+262m--1-816.59220mNRSarai Rohilla, Delhi NCT
26NDLSNew Delhi (16)X13:05+2213:35+2330m71-812.632215mNRAjmeri Gate/Paharganj, Delhi NCT
27NZMDelhi Hazrat Nizamuddin (7)O  13:49+3013:51+322m11-805.237209mNRNizamuddin East/Sarai KaleKhan Bus Terminal, Delhi NCT
28OKAOkhla (4)X  13:57+3413:59+332m--1-801.652221mNRIshwar Nagar Mathura Road, Delhi NCT
29TKDTuglakabad (4)XO  14:06+3414:08+352m11-795.644213mNRNear Tughlakabad Metro Station, Delhi NCT
30FDBFaridabad (4)  14:23+3114:25+322m31-784.527206mNRFaridabad, Haryana
31BVHBallabgarh (5)O  14:43+3414:45+342m--1-776.439203mNRFaridabad, Haryana
32PWLPalwal (8)  15:18+2615:20+282m--1-755.285200mNRPalwal, Haryana
33KSVKosi Kalan (3)XO  15:50+4915:52+522m21-712.756189mNCRKosi Kalan, Uttar Pradesh
34CHJChata (4)X  16:03+5016:05+522m--1-702.534185mNCRChhata, Uttar Pradesh
35MTJMathura Junction (10)  17:00+3317:05+405m31-671.380179mNCRMathura, Uttar Pradesh
36BTEBharatpur Junction (5)O  17:30+4717:35+475m31-637.872174mWCRBharatpur, Rajasthan
37BXNBayana Junction (3)X  18:10+4618:15+465m--1-595.891198mWCRBayana, Rajasthan
38FSPFateh SinghpuraX  18:28+5018:30+532m--1-576.144223mWCRState Highway 1, Rajasthan
39HANHindaun City (2)  18:48+4918:50+582m--1-562.961230mWCRKarauli, Rajasthan
40SMBJShri Mahabirji (3)XO  19:00+5719:02+572m--1-552.743240mWCRKarauli, Rajasthan
41GGCGangapur City (3)  19:50+4019:55+495m21-518.664270mWCRGangapur, Rajasthan
42NNWNarayanpur Tatwara (2)OT20:11+5120:12+531m--1-501.736256mWCRSawai Madhopur, Rajasthan
43MLZMalarna  20:40+3920:42+402m21-484.979236mWCRSawai Madhopur, Rajasthan
44SWMSawai Madhopur Junction (4)X  21:05+4621:10+535m21-454.787266mWCRSawai Madhopur, Rajasthan
45IDGIndargarh Sumerganj Mandi (2)  21:35+5821:37+592m--1-418.566247mWCRIndargarh, Rajasthan
46LKELakheri (3)X  21:47+5921:49+1:022m--1-407.545228mWCRBundi, Rajasthan
47KOTAKota Junction (5)  23:10+5623:20+5810m21-346.968256mWCRKota, Rajasthan
48RMARamganj Mandi Junction (3)X  00:23+5800:25+592m--2-275.657358mWCRRamganj Mandi, Rajasthan
49JHWJhalawar Road (3)XO  00:38+5800:40+592m--2-263.330361mWCRJhalawar City, Rajasthan
50BWMBhawani Mandi (3)X  01:13+4201:15+472m--2-246.874384mWCRBhawani Mandi, Madhya Pradesh
51SGZShamgarh (3)X  01:42+5101:47+515m--2-213.350463mWCRMandsaur, Madhya Pradesh
52SVASuwasra (2)O  02:03+4802:05+502m--2-199.940450mWCRSuwasra, Madhya Pradesh
53CMUChau Mahla (3)  02:28+4002:30+432m12-184.520426mWCRJhalawar, Rajasthan
54VMAVikramgarh Alot (2)X  03:36+1403:38+162m12-162.741443mWCRKota Division, Madhya Pradesh
55MEPMahidpur Road  04:13+904:15+122m--2-138.841493mWCRGogapur, Madhya Pradesh
56NADNagda Junction (4)X  04:40+1004:45+165m--2-121.775468mWRNagda, Madhya Pradesh
57KUHKhachrod (2)X  04:56+1804:58+192m--2-107.935497mWRUjjain, Madhya Pradesh
58RTMRatlam Junction (7)X  05:45+1606:00+2015m42-80.377495mWRRatlam, Madhya Pradesh
59BMIBamnia (2)  06:35+2506:37+252m--2-35.575392mWRBamnia, Madhya Pradesh
60THDRThandla Road (2)  06:59+2707:01+262m--2-8.068317mWRJhabua, Madhya Pradesh
61MGN»Meghnagar (3)»  07:08+2707:10+272m--20.080317mWRJhabua, Madhya Pradesh
62DHDDahod (3)X  07:35+3307:40+335m--233.173313mWRDahod, Gujarat
63LMKLimkheda  08:07+3308:09+322m--266.168205mWRLimkheda, Gujarat
64PPDPiplod Junction  08:16+3208:18+312m--274.089209mWRPiplod, Gujarat
65SATSant Road (2)X  08:26+3408:28+332m2285.920169mWROrwara, Gujarat
66GDAGodhra Junction (3)X  09:29+909:34+135m12106.274122mWRGodhra, Gujarat
67DRLDerol  09:53+1609:55+162m--2129.87981mWRKalol, Gujarat
68SMLASamlaya Junction (3)  10:13+1610:15+162m--2153.55367mWRVadodara, Gujarat
69BRCVadodara Junction (7)X10:45+2010:55+1910m12180.18936mWRVadodara, Gujarat
70MYGMiyagam Karjan (2)  11:15+2411:17+242m22210.08329mWRKarjan, Gujarat
71PLJPalej (4)  11:28+2711:30+272m--2225.28029mWRPalej, Gujarat
72NIUNabipur (3)XT11:40+3211:42+322m--2238.65224mWRNabipur, Gujarat
73BHBharuch Junction (5)  11:56+3011:58+322m22250.66219mWRBharuch, Gujarat
74AKVAnkleshwar Junction (4)O  12:07+3312:09+332m22260.04819mWRAnkleshwar, Gujarat
75PAOPanoli (3)T12:22+3112:24+302m--2270.36229mWRPanoli, Gujarat
76KSBKosamba Junction (3)XO  12:32+3012:34+302m22278.55830mWRKosamba, Gujarat
77KIMKim (2)XT12:42+2512:44+242m22286.33118mWRNH 8, Gujarat
78STSurat (4)X  13:30+1613:35+185m22309.97119mWRSurat 395001, Gujarat
79MRLMaroli (3)  13:53+2513:55+262m22331.14615mWRMaroli, Gujarat
80NVSNavsari (3)  14:06+2414:08+252m22339.55514mWRNavsari, Gujarat
81AMLAmalsad (3)X  14:25+2314:27+232m22355.13712mWRAmalsad, Gujarat
82BIMBilimora Junction (4)XO  14:36+2114:38+242m22360.73611mWRBilimora, Gujarat
83BLValsad (3)X  15:08+1915:10+242m32378.64615mWRValsad, Gujarat
84PADPardi (3)XT15:24+2215:26+212m--2389.35119mWRValsad, Gujarat
85UVDUdvada (3)T15:33+2015:35+212m--2395.35218mWRUdvada, Gujarat
86VAPIVapi (3)XO  15:46+2015:48+272m22404.93427mWRVapi, Gujarat
87BLDBhilad (3)XO  16:08+1816:10+182m--2416.16933mWRBhilad, Gujarat
88SJNSanjan (3)XO  16:20+1816:22+182m--2427.75422mWRSanjan, Gujarat
89UBRUmbargam Road (3)XO  16:28+1916:30+192m--2433.14730mWRUmbergaon, Gujarat
90DRDDahanu Road (5)X  16:56+1016:58+132m--2453.47412mWRDahanu, Maharashtra
91VGNVangaon (3)XO  17:08+1317:10+132m--2465.77111mWRThane, Maharashtra
92BORBoisar (3)XO  17:18+1317:20+132m32475.16117mWRBoisar Tel.no-02525-266626, Maharashtra
93PLGPalghar (3)XO  17:31+1217:33+132m22486.45719mWRPalghar, Maharashtra
94VRVirar (8)XO  18:06+818:08+92m42517.5526mWRThane, Maharashtra
95BVIMumbai Borivali (8)  18:38+1118:40+172m52543.32219mWRMumbai - 400092, Maharashtra
96DDR•Mumbai Dadar Western (6)•  19:46+919:48+112m52567.1166mWRMumbai, Maharashtra
97BCTMumbai Central (9)  20:10+5-52573.0-3mWRMumbai-400 008, Maharashtra
Scroll to Top
Scroll to Bottom